Time;durP1;ratioP1;P1;durP2;ratioP2;P2;SDS_P1;SDS_P2;PMS_P1;PMS_P2;Temp;Humidity;BMP_temperature;BMP_pressure;BME280_temperature;BME280_humidity;BME280_pressure;Samples;Min_cycle;Max_cycle;Signal;HPM_P1;HPM_P2
2022/04/11 00:01:32;;;;;;;;;;;;;;;;;;5105049;27;1389;-75
2022/04/11 00:03:57;;;;;;;;;;;;;;;;;;5107216;28;1944;-75
2022/04/11 00:06:22;;;;;;;;;;;;;;;;;;5124578;27;1193;-75
2022/04/11 00:08:48;;;;;;;;;;;;;;;;;;5123120;28;1459;-75
2022/04/11 00:11:13;;;;;;;;;;;;;;;;;;5121697;28;1331;-74
2022/04/11 00:13:38;;;;;;;;;;;;;;;;;;5106310;28;1446;-75
2022/04/11 00:16:07;;;;;;;;;;;;;;;;;;5124181;28;1163;-73
2022/04/11 00:18:33;;;;;;;;;;;;;;;;;;5122262;28;1315;-74
2022/04/11 00:20:58;;;;;;;;;;;;;;;;;;5118425;28;1465;-74
2022/04/11 00:23:23;;;;;;;;;;;;;;;;;;5122388;28;1890;-74
2022/04/11 00:25:48;;;;;;;;;;;;;;;;;;5120679;27;1268;-75
2022/04/11 00:28:14;;;;;;;;;;;;;;;;;;5099290;28;1366;-74
2022/04/11 00:30:39;;;;;;;;;;;;;;;;;;5090112;28;1226;-75
2022/04/11 00:33:05;;;;;;;;;;;;;;;;;;5088883;28;1290;-75
2022/04/11 00:35:31;;;;;;;;;;;;;;;;;;5105273;28;1148;-75
2022/04/11 00:37:57;;;;;;;;;;;;;;;;;;5086832;28;1343;-74
2022/04/11 00:40:22;;;;;;;;;;;;;;;;;;5104278;28;1128;-73
2022/04/11 00:42:49;;;;;;;;;;;;;;;;;;5127132;27;1905;-74
2022/04/11 00:45:15;;;;;;;;;;;;;;;;;;5131005;27;1187;-74
2022/04/11 00:47:40;;;;;;;;;;;;;;;;;;5121343;27;1124;-75
2022/04/11 00:50:07;;;;;;;;;;;;;;;;;;5127631;27;1280;-75
2022/04/11 00:52:35;;;;;;;;;;;;;;;;;;5127851;27;1345;-75
2022/04/11 00:55:02;;;;;;;;;;;;;;;;;;5127850;27;1372;-76
2022/04/11 00:57:28;;;;;;;;;;;;;;;;;;5127342;27;1244;-75
2022/04/11 00:59:53;;;;;;;;;;;;;;;;;;5129726;27;1210;-74
2022/04/11 01:02:18;;;;;;;;;;;;;;;;;;5130260;27;1886;-75
2022/04/11 01:04:43;;;;;;;;;;;;;;;;;;5115394;27;1158;-75
2022/04/11 01:07:09;;;;;;;;;;;;;;;;;;5116907;27;1123;-75
2022/04/11 01:09:38;;;;;;;;;;;;;;;;;;5091640;27;1422;-74
2022/04/11 01:12:03;;;;;;;;;;;;;;;;;;5115346;27;1216;-74
2022/04/11 01:14:28;;;;;;;;;;;;;;;;;;5096426;27;1451;-74
2022/04/11 01:16:54;;;;;;;;;;;;;;;;;;5106510;28;1147;-75
2022/04/11 01:19:20;;;;;;;;;;;;;;;;;;5107672;28;1400;-75
2022/04/11 01:21:46;;;;;;;;;;;;;;;;;;5086295;28;1969;-74
2022/04/11 01:24:11;;;;;;;;;;;;;;;;;;5104977;27;1317;-74
2022/04/11 01:26:37;;;;;;;;;;;;;;;;;;5104615;27;1222;-75
2022/04/11 01:29:04;;;;;;;;;;;;;;;;;;5108003;28;1230;-74
2022/04/11 01:31:29;;;;;;;;;;;;;;;;;;5107342;28;1171;-73
2022/04/11 01:33:54;;;;;;;;;;;;;;;;;;5124274;27;1147;-73
2022/04/11 01:36:20;;;;;;;;;;;;;;;;;;5104763;28;1232;-75
2022/04/11 01:38:46;;;;;;;;;;;;;;;;;;5105250;28;1048;-74
2022/04/11 01:41:11;;;;;;;;;;;;;;;;;;5095007;27;1328;-74
2022/04/11 01:43:37;;;;;;;;;;;;;;;;;;5127559;27;1910;-73
2022/04/11 01:46:02;;;;;;;;;;;;;;;;;;5108395;27;1291;-73
2022/04/11 01:48:28;;;;;;;;;;;;;;;;;;5110001;27;1297;-73
2022/04/11 01:50:53;;;;;;;;;;;;;;;;;;5122907;27;1565;-72
2022/04/11 01:53:19;;;;;;;;;;;;;;;;;;5110413;27;1196;-76
2022/04/11 01:55:44;;;;;;;;;;;;;;;;;;5103320;27;1332;-74
2022/04/11 01:58:10;;;;;;;;;;;;;;;;;;5124618;27;1211;-75
2022/04/11 02:00:36;;;;;;;;;;;;;;;;;;5125600;27;1147;-75
2022/04/11 02:03:02;;;;;;;;;;;;;;;;;;5114464;27;1988;-75
2022/04/11 02:05:40;;;;;;;;;;;;;;;;;;5104950;28;1144;-75
2022/04/11 02:08:07;;;;;;;;;;;;;;;;;;5110462;27;1080;-74
2022/04/11 02:10:32;;;;;;;;;;;;;;;;;;5121008;27;1192;-75
2022/04/11 02:12:58;;;;;;;;;;;;;;;;;;5126013;27;1280;-74
2022/04/11 02:15:23;;;;;;;;;;;;;;;;;;5126308;27;1247;-75
2022/04/11 02:17:50;;;;;;;;;;;;;;;;;;5123610;27;1157;-75
2022/04/11 02:20:16;;;;;;;;;;;;;;;;;;5110975;27;1291;-74
2022/04/11 02:22:51;;;;;;;;;;;;;;;;;;5117218;27;1941;-75
2022/04/11 02:25:17;;;;;;;;;;;;;;;;;;5101523;28;1380;-75
2022/04/11 02:27:45;;;;;;;;;;;;;;;;;;5107102;28;1234;-75
2022/04/11 02:30:11;;;;;;;;;;;;;;;;;;5119020;27;1649;-74
2022/04/11 02:32:36;;;;;;;;;;;;;;;;;;5125632;27;1208;-74
2022/04/11 02:35:02;;;;;;;;;;;;;;;;;;5107753;27;1260;-75
2022/04/11 02:37:27;;;;;;;;;;;;;;;;;;5122178;27;1391;-73
2022/04/11 02:39:52;;;;;;;;;;;;;;;;;;5102699;28;1413;-74
2022/04/11 02:42:21;;;;;;;;;;;;;;;;;;5105513;28;1940;-74
2022/04/11 02:44:47;;;;;;;;;;;;;;;;;;5087426;28;1403;-74
2022/04/11 02:47:12;;;;;;;;;;;;;;;;;;5105571;28;1380;-74
2022/04/11 02:49:37;;;;;;;;;;;;;;;;;;5107329;28;1219;-73
2022/04/11 02:52:02;;;;;;;;;;;;;;;;;;5084798;28;1136;-74
2022/04/11 02:54:28;;;;;;;;;;;;;;;;;;5086143;28;1280;-74
2022/04/11 02:56:53;;;;;;;;;;;;;;;;;;5103419;28;1186;-74
2022/04/11 02:59:18;;;;;;;;;;;;;;;;;;5106741;28;1163;-75
2022/04/11 03:01:44;;;;;;;;;;;;;;;;;;5111314;27;1929;-75
2022/04/11 03:04:10;;;;;;;;;;;;;;;;;;5102123;28;1208;-73
2022/04/11 03:06:35;;;;;;;;;;;;;;;;;;5101389;28;1194;-73
2022/04/11 03:09:00;;;;;;;;;;;;;;;;;;5105025;27;1174;-74
2022/04/11 03:11:25;;;;;;;;;;;;;;;;;;5123617;27;1114;-74
2022/04/11 03:13:51;;;;;;;;;;;;;;;;;;5102674;28;1179;-75
2022/04/11 03:16:16;;;;;;;;;;;;;;;;;;5113334;27;1156;-74
2022/04/11 03:18:41;;;;;;;;;;;;;;;;;;5108455;27;1331;-74
2022/04/11 03:21:06;;;;;;;;;;;;;;;;;;5104026;27;1411;-74
2022/04/11 03:23:33;;;;;;;;;;;;;;;;;;5125411;27;1969;-76
2022/04/11 03:25:58;;;;;;;;;;;;;;;;;;5121487;27;1384;-74
2022/04/11 03:28:23;;;;;;;;;;;;;;;;;;5126875;27;1384;-74
2022/04/11 03:30:49;;;;;;;;;;;;;;;;;;5124894;27;1291;-75
2022/04/11 03:33:14;;;;;;;;;;;;;;;;;;5127071;27;1163;-74
2022/04/11 03:35:39;;;;;;;;;;;;;;;;;;5114166;27;1125;-76
2022/04/11 03:38:04;;;;;;;;;;;;;;;;;;5092875;27;1454;-76
2022/04/11 03:40:30;;;;;;;;;;;;;;;;;;5084359;28;1343;-73
2022/04/11 03:42:55;;;;;;;;;;;;;;;;;;5106940;27;1945;-73
2022/04/11 03:45:20;;;;;;;;;;;;;;;;;;5114127;27;1135;-75
2022/04/11 03:47:52;;;;;;;;;;;;;;;;;;5119556;27;1025;-75
2022/04/11 03:50:17;;;;;;;;;;;;;;;;;;5106824;28;1449;-74
2022/04/11 03:52:42;;;;;;;;;;;;;;;;;;5121043;27;1132;-74
2022/04/11 03:55:14;;;;;;;;;;;;;;;;;;5108262;27;1410;-74
2022/04/11 03:57:39;;;;;;;;;;;;;;;;;;5120262;27;1227;-72
2022/04/11 04:00:04;;;;;;;;;;;;;;;;;;5104343;28;1132;-74
2022/04/11 04:02:30;;;;;;;;;;;;;;;;;;5108519;27;1956;-73
2022/04/11 04:04:55;;;;;;;;;;;;;;;;;;5111932;28;1144;-73
2022/04/11 04:07:21;;;;;;;;;;;;;;;;;;5103678;28;1230;-74
2022/04/11 04:09:46;;;;;;;;;;;;;;;;;;5104165;28;1183;-75
2022/04/11 04:12:11;;;;;;;;;;;;;;;;;;5085133;28;1175;-73
2022/04/11 04:14:37;;;;;;;;;;;;;;;;;;5092418;28;1221;-74
2022/04/11 04:17:02;;;;;;;;;;;;;;;;;;5125574;27;1306;-74
2022/04/11 04:19:28;;;;;;;;;;;;;;;;;;5131284;27;1182;-76
2022/04/11 04:21:53;;;;;;;;;;;;;;;;;;5125117;27;1901;-76
2022/04/11 04:24:22;;;;;;;;;;;;;;;;;;5108801;27;1307;-74
2022/04/11 04:26:48;;;;;;;;;;;;;;;;;;5127365;27;1195;-75
2022/04/11 04:29:14;;;;;;;;;;;;;;;;;;5126500;27;1136;-75
2022/04/11 04:31:39;;;;;;;;;;;;;;;;;;5110605;27;1391;-75
2022/04/11 04:34:04;;;;;;;;;;;;;;;;;;5114460;27;1154;-75
2022/04/11 04:36:29;;;;;;;;;;;;;;;;;;5106866;27;1180;-75
2022/04/11 04:38:58;;;;;;;;;;;;;;;;;;5105350;27;1233;-75
2022/04/11 04:41:23;;;;;;;;;;;;;;;;;;5123964;27;1182;-75
2022/04/11 04:43:49;;;;;;;;;;;;;;;;;;5127944;27;1967;-75
2022/04/11 04:46:14;;;;;;;;;;;;;;;;;;5124785;27;1152;-74
2022/04/11 04:48:39;;;;;;;;;;;;;;;;;;5106639;28;1235;-75
2022/04/11 04:51:04;;;;;;;;;;;;;;;;;;5101845;28;1357;-75
2022/04/11 04:53:36;;;;;;;;;;;;;;;;;;5108337;27;1176;-74
2022/04/11 04:56:01;;;;;;;;;;;;;;;;;;5103330;28;1370;-74
2022/04/11 04:58:27;;;;;;;;;;;;;;;;;;5124963;27;1040;-73
2022/04/11 05:00:53;;;;;;;;;;;;;;;;;;5116094;27;1381;-74
2022/04/11 05:03:18;;;;;;;;;;;;;;;;;;5125242;27;1893;-74
2022/04/11 05:05:43;;;;;;;;;;;;;;;;;;5124645;27;1386;-73
2022/04/11 05:08:09;;;;;;;;;;;;;;;;;;5125488;27;1177;-74
2022/04/11 05:10:34;;;;;;;;;;;;;;;;;;5123675;27;1131;-73
2022/04/11 05:12:59;;;;;;;;;;;;;;;;;;5122746;27;1147;-73
2022/04/11 05:15:25;;;;;;;;;;;;;;;;;;5107427;28;1150;-74
2022/04/11 05:17:50;;;;;;;;;;;;;;;;;;5108959;27;1183;-74
2022/04/11 05:20:16;;;;;;;;;;;;;;;;;;5122861;27;1226;-74
2022/04/11 05:22:41;;;;;;;;;;;;;;;;;;5126551;27;1952;-73
2022/04/11 05:25:07;;;;;;;;;;;;;;;;;;5123996;27;1288;-74
2022/04/11 05:27:33;;;;;;;;;;;;;;;;;;5127424;27;1282;-75
2022/04/11 05:29:59;;;;;;;;;;;;;;;;;;5111444;27;1329;-74
2022/04/11 05:32:24;;;;;;;;;;;;;;;;;;5129224;27;1082;-75
2022/04/11 05:34:49;;;;;;;;;;;;;;;;;;5130312;27;1385;-75
2022/04/11 05:37:15;;;;;;;;;;;;;;;;;;5126584;27;897;-75
2022/04/11 05:39:40;;;;;;;;;;;;;;;;;;5127537;27;1700;-76
2022/04/11 05:42:06;;;;;;;;;;;;;;;;;;5124592;27;2003;-75
2022/04/11 05:44:31;;;;;;;;;;;;;;;;;;5112785;27;1186;-75
2022/04/11 05:46:57;;;;;;;;;;;;;;;;;;5130246;27;928;-75
2022/04/11 05:49:23;;;;;;;;;;;;;;;;;;5129184;27;1226;-75
2022/04/11 05:51:50;;;;;;;;;;;;;;;;;;5114561;27;1138;-75
2022/04/11 05:54:15;;;;;;;;;;;;;;;;;;5100013;28;1203;-75
2022/04/11 05:56:41;;;;;;;;;;;;;;;;;;5105353;28;1151;-74
2022/04/11 05:59:08;;;;;;;;;;;;;;;;;;5086860;28;1183;-73
2022/04/11 06:01:34;;;;;;;;;;;;;;;;;;5109292;27;1297;-73
2022/04/11 06:04:00;;;;;;;;;;;;;;;;;;5119220;27;1901;-73
2022/04/11 06:06:25;;;;;;;;;;;;;;;;;;5122250;27;1184;-74
2022/04/11 06:08:51;;;;;;;;;;;;;;;;;;5123046;27;1471;-73
2022/04/11 06:11:16;;;;;;;;;;;;;;;;;;5122536;27;1292;-74
2022/04/11 06:13:43;;;;;;;;;;;;;;;;;;5125367;27;1302;-73
2022/04/11 06:16:08;;;;;;;;;;;;;;;;;;5100838;27;1464;-75
2022/04/11 06:18:33;;;;;;;;;;;;;;;;;;5117624;27;1227;-73
2022/04/11 06:20:59;;;;;;;;;;;;;;;;;;5106363;27;1187;-74
2022/04/11 06:23:24;;;;;;;;;;;;;;;;;;5103749;27;1895;-74
2022/04/11 06:25:49;;;;;;;;;;;;;;;;;;5100342;28;1077;-74
2022/04/11 06:28:15;;;;;;;;;;;;;;;;;;5103336;28;1117;-74
2022/04/11 06:30:40;;;;;;;;;;;;;;;;;;5087348;28;1420;-75
2022/04/11 06:33:06;;;;;;;;;;;;;;;;;;5103968;28;1171;-74
2022/04/11 06:35:32;;;;;;;;;;;;;;;;;;5122696;27;1155;-74
2022/04/11 06:37:57;;;;;;;;;;;;;;;;;;5109282;27;1198;-75
2022/04/11 06:40:23;;;;;;;;;;;;;;;;;;5099386;28;1163;-75
2022/04/11 06:42:48;;;;;;;;;;;;;;;;;;5105911;27;1918;-74
2022/04/11 06:45:14;;;;;;;;;;;;;;;;;;5103464;27;1655;-75
2022/04/11 06:47:39;;;;;;;;;;;;;;;;;;5126879;27;1194;-73
2022/04/11 06:50:06;;;;;;;;;;;;;;;;;;5124906;27;1133;-73
2022/04/11 06:52:31;;;;;;;;;;;;;;;;;;5122301;27;1127;-74
2022/04/11 06:54:56;;;;;;;;;;;;;;;;;;5123088;27;1212;-74
2022/04/11 06:57:24;;;;;;;;;;;;;;;;;;5105707;27;1304;-74
2022/04/11 06:59:49;;;;;;;;;;;;;;;;;;5126753;27;1174;-74
2022/04/11 07:02:14;;;;;;;;;;;;;;;;;;5124322;27;1893;-74
2022/04/11 07:04:40;;;;;;;;;;;;;;;;;;5112695;27;1328;-74
2022/04/11 07:07:08;;;;;;;;;;;;;;;;;;5106305;27;1176;-75
2022/04/11 07:09:33;;;;;;;;;;;;;;;;;;5106918;27;1239;-74
2022/04/11 07:11:59;;;;;;;;;;;;;;;;;;5125442;27;1416;-74
2022/04/11 07:14:24;;;;;;;;;;;;;;;;;;5107130;27;1276;-74
2022/04/11 07:16:51;;;;;;;;;;;;;;;;;;5126088;27;1138;-74
2022/04/11 07:19:16;;;;;;;;;;;;;;;;;;5106539;27;1225;-73
2022/04/11 07:21:42;;;;;;;;;;;;;;;;;;5123460;27;1179;-74
2022/04/11 07:24:07;;;;;;;;;;;;;;;;;;5122163;27;1951;-73
2022/04/11 07:26:35;;;;;;;;;;;;;;;;;;5087392;28;1575;-73
2022/04/11 07:29:00;;;;;;;;;;;;;;;;;;5106362;28;1249;-73
2022/04/11 07:31:27;;;;;;;;;;;;;;;;;;5106077;27;1154;-73
2022/04/11 07:33:52;;;;;;;;;;;;;;;;;;5125250;27;1167;-73
2022/04/11 07:36:17;;;;;;;;;;;;;;;;;;5120370;27;1394;-74
2022/04/11 07:38:43;;;;;;;;;;;;;;;;;;5122908;27;1051;-74
2022/04/11 07:41:11;;;;;;;;;;;;;;;;;;5122774;27;1223;-75
2022/04/11 07:43:37;;;;;;;;;;;;;;;;;;5123373;27;1909;-75
2022/04/11 07:46:05;;;;;;;;;;;;;;;;;;5123290;27;1251;-74
2022/04/11 07:48:30;;;;;;;;;;;;;;;;;;5102287;27;1171;-74
2022/04/11 07:50:56;;;;;;;;;;;;;;;;;;5101341;28;1132;-74
2022/04/11 07:53:21;;;;;;;;;;;;;;;;;;5084991;28;1305;-73
2022/04/11 07:55:47;;;;;;;;;;;;;;;;;;5106975;27;1377;-73
2022/04/11 07:58:16;;;;;;;;;;;;;;;;;;5120309;27;1113;-73
2022/04/11 08:00:42;;;;;;;;;;;;;;;;;;5123202;27;1186;-73
2022/04/11 08:03:08;;;;;;;;;;;;;;;;;;5126130;27;1902;-73
2022/04/11 08:05:43;;;;;;;;;;;;;;;;;;5121505;27;1231;-74
2022/04/11 08:08:15;;;;;;;;;;;;;;;;;;5124357;27;1103;-74
2022/04/11 08:10:40;;;;;;;;;;;;;;;;;;5098732;28;1318;-75
2022/04/11 08:13:05;;;;;;;;;;;;;;;;;;5105069;28;1021;-74
2022/04/11 08:15:32;;;;;;;;;;;;;;;;;;5103433;28;810;-72
2022/04/11 08:17:58;;;;;;;;;;;;;;;;;;5104057;28;1005;-74
2022/04/11 08:20:24;;;;;;;;;;;;;;;;;;5103278;28;905;-74
2022/04/11 08:22:49;;;;;;;;;;;;;;;;;;5101977;28;1956;-74
2022/04/11 08:25:15;;;;;;;;;;;;;;;;;;5098865;28;1257;-74
2022/04/11 08:27:41;;;;;;;;;;;;;;;;;;5087569;28;1487;-74
2022/04/11 08:30:06;;;;;;;;;;;;;;;;;;5103793;28;1218;-73
2022/04/11 08:32:38;;;;;;;;;;;;;;;;;;5101225;28;892;-73
2022/04/11 08:35:08;;;;;;;;;;;;;;;;;;5103721;28;729;-74
2022/04/11 08:37:43;;;;;;;;;;;;;;;;;;5082748;28;1278;-74
2022/04/11 08:40:13;;;;;;;;;;;;;;;;;;5085391;28;1256;-74
2022/04/11 08:42:39;;;;;;;;;;;;;;;;;;5101764;28;1901;-74
2022/04/11 08:45:04;;;;;;;;;;;;;;;;;;5111700;28;1485;-74
2022/04/11 08:47:30;;;;;;;;;;;;;;;;;;5106896;28;1307;-74
2022/04/11 08:49:55;;;;;;;;;;;;;;;;;;5104633;28;869;-74
2022/04/11 08:52:21;;;;;;;;;;;;;;;;;;5099489;28;1158;-72
2022/04/11 08:54:46;;;;;;;;;;;;;;;;;;5086012;28;1157;-73
2022/04/11 08:57:11;;;;;;;;;;;;;;;;;;5102077;28;1116;-73
2022/04/11 08:59:37;;;;;;;;;;;;;;;;;;5104036;28;924;-74
2022/04/11 09:02:07;;;;;;;;;;;;;;;;;;5088845;28;1893;-74
2022/04/11 09:04:45;;;;;;;;;;;;;;;;;;5125591;27;1187;-74
2022/04/11 09:07:11;;;;;;;;;;;;;;;;;;5126635;27;1135;-74
2022/04/11 09:09:39;;;;;;;;;;;;;;;;;;5127408;27;1251;-74
2022/04/11 09:12:05;;;;;;;;;;;;;;;;;;5128832;27;1225;-75
2022/04/11 09:14:32;;;;;;;;;;;;;;;;;;5127590;27;1222;-75
2022/04/11 09:16:57;;;;;;;;;;;;;;;;;;5128920;27;1229;-74
2022/04/11 09:19:27;;;;;;;;;;;;;;;;;;5128621;27;1154;-74
2022/04/11 09:21:54;;;;;;;;;;;;;;;;;;5126207;27;1144;-74
2022/04/11 09:24:21;;;;;;;;;;;;;;;;;;5107835;27;1974;-75
2022/04/11 09:26:47;;;;;;;;;;;;;;;;;;5107327;27;1111;-75
2022/04/11 09:29:12;;;;;;;;;;;;;;;;;;5092127;28;1246;-74
2022/04/11 09:31:38;;;;;;;;;;;;;;;;;;5107936;28;857;-75
2022/04/11 09:34:14;;;;;;;;;;;;;;;;;;5109060;28;1176;-73
2022/04/11 09:36:43;;;;;;;;;;;;;;;;;;5105609;28;1176;-73
2022/04/11 09:39:08;;;;;;;;;;;;;;;;;;5105657;28;845;-72
2022/04/11 09:41:34;;;;;;;;;;;;;;;;;;5086698;28;1151;-73
2022/04/11 09:44:21;;;;;;;;;;;;;;;;;;5091494;28;1913;-73
2022/04/11 09:46:47;;;;;;;;;;;;;;;;;;5107490;28;1309;-74
2022/04/11 09:49:12;;;;;;;;;;;;;;;;;;5108094;28;938;-73
2022/04/11 09:51:57;;;;;;;;;;;;;;;;;;5107617;28;1166;-72
2022/04/11 09:54:24;;;;;;;;;;;;;;;;;;5104812;28;1173;-74
2022/04/11 09:56:50;;;;;;;;;;;;;;;;;;5105420;27;1147;-73
2022/04/11 09:59:15;;;;;;;;;;;;;;;;;;5121141;27;1131;-74
2022/04/11 10:01:44;;;;;;;;;;;;;;;;;;5125359;27;1139;-74
2022/04/11 10:04:09;;;;;;;;;;;;;;;;;;5118549;27;1885;-74
2022/04/11 10:06:35;;;;;;;;;;;;;;;;;;5105899;27;1151;-74
2022/04/11 10:09:02;;;;;;;;;;;;;;;;;;5124584;27;1077;-74
2022/04/11 10:11:28;;;;;;;;;;;;;;;;;;5121052;27;1210;-75
2022/04/11 10:13:54;;;;;;;;;;;;;;;;;;5125411;27;1378;-75
2022/04/11 10:16:20;;;;;;;;;;;;;;;;;;5125646;27;1191;-74
2022/04/11 10:18:46;;;;;;;;;;;;;;;;;;5107885;27;1222;-74
2022/04/11 10:21:13;;;;;;;;;;;;;;;;;;5107876;27;1368;-74
2022/04/11 10:23:47;;;;;;;;;;;;;;;;;;5123497;27;1950;-73
2022/04/11 10:26:14;;;;;;;;;;;;;;;;;;5123071;27;1283;-74
2022/04/11 10:28:47;;;;;;;;;;;;;;;;;;5123839;27;1098;-74
2022/04/11 10:31:13;;;;;;;;;;;;;;;;;;5127183;27;786;-74
2022/04/11 10:33:56;;;;;;;;;;;;;;;;;;5125873;27;1371;-75
2022/04/11 10:36:33;;;;;;;;;;;;;;;;;;5125137;27;1524;-73
2022/04/11 10:39:16;;;;;;;;;;;;;;;;;;5121954;27;1401;-73
2022/04/11 10:41:54;;;;;;;;;;;;;;;;;;5119537;27;1292;-73
2022/04/11 10:44:31;;;;;;;;;;;;;;;;;;5119367;27;1894;-73
2022/04/11 10:47:09;;;;;;;;;;;;;;;;;;5125202;27;1242;-74
2022/04/11 10:49:50;;;;;;;;;;;;;;;;;;5124250;27;1273;-75
2022/04/11 10:52:31;;;;;;;;;;;;;;;;;;5121638;27;1248;-73
2022/04/11 10:55:17;;;;;;;;;;;;;;;;;;5123503;27;1202;-73
2022/04/11 10:57:45;;;;;;;;;;;;;;;;;;5122940;27;1147;-73
2022/04/11 11:00:15;;;;;;;;;;;;;;;;;;5110392;27;1205;-83
2022/04/11 11:02:52;;;;;;;;;;;;;;;;;;5111667;27;1897;-82
2022/04/11 11:05:38;;;;;;;;;;;;;;;;;;5106011;28;1290;-77
2022/04/11 11:08:13;;;;;;;;;;;;;;;;;;5106832;28;1269;-76
2022/04/11 11:10:38;;;;;;;;;;;;;;;;;;5101762;28;1170;-78
2022/04/11 11:13:22;;;;;;;;;;;;;;;;;;5105033;28;1286;-77
2022/04/11 11:15:48;;;;;;;;;;;;;;;;;;5104345;28;822;-76
2022/04/11 11:18:13;;;;;;;;;;;;;;;;;;5109778;28;1167;-77
2022/04/11 11:20:48;;;;;;;;;;;;;;;;;;5093655;28;1194;-76
2022/04/11 11:23:15;;;;;;;;;;;;;;;;;;5105682;28;1944;-76
2022/04/11 11:25:40;;;;;;;;;;;;;;;;;;5099114;28;1304;-75
2022/04/11 11:28:05;;;;;;;;;;;;;;;;;;5087561;28;1405;-76
2022/04/11 11:30:32;;;;;;;;;;;;;;;;;;5104057;28;1067;-77
2022/04/11 11:33:00;;;;;;;;;;;;;;;;;;5114858;27;1273;-80
2022/04/11 11:35:25;;;;;;;;;;;;;;;;;;5122722;27;1325;-76
2022/04/11 11:37:55;;;;;;;;;;;;;;;;;;5112213;27;1429;-76
2022/04/11 11:40:20;;;;;;;;;;;;;;;;;;5109737;27;1150;-75
2022/04/11 11:42:46;;;;;;;;;;;;;;;;;;5120366;27;1913;-75
2022/04/11 11:45:11;;;;;;;;;;;;;;;;;;5118781;27;1150;-75
2022/04/11 11:47:36;;;;;;;;;;;;;;;;;;5119076;27;1155;-76
2022/04/11 11:50:05;;;;;;;;;;;;;;;;;;5125746;27;834;-76
2022/04/11 11:52:31;;;;;;;;;;;;;;;;;;5123280;27;1443;-75
2022/04/11 11:54:56;;;;;;;;;;;;;;;;;;5124058;27;1243;-75
2022/04/11 11:57:24;;;;;;;;;;;;;;;;;;5122329;27;996;-76
2022/04/11 11:59:54;;;;;;;;;;;;;;;;;;5124757;27;904;-75
2022/04/11 12:05:37;;;;;;;;;;;;;;;;;;5125582;27;676;-75
2022/04/11 12:08:02;;;;;;;;;;;;;;;;;;5091671;27;1286;-76
2022/04/11 12:10:29;;;;;;;;;;;;;;;;;;5124073;27;1221;-76
2022/04/11 12:12:55;;;;;;;;;;;;;;;;;;5124271;27;1223;-76
2022/04/11 12:15:21;;;;;;;;;;;;;;;;;;5127864;27;936;-76
2022/04/11 12:17:47;;;;;;;;;;;;;;;;;;5121829;28;1238;-76
2022/04/11 12:20:14;;;;;;;;;;;;;;;;;;5126083;27;1349;-76
2022/04/11 12:22:40;;;;;;;;;;;;;;;;;;5122732;28;1947;-76
2022/04/11 12:25:25;;;;;;;;;;;;;;;;;;5106211;28;1296;-75
2022/04/11 12:27:50;;;;;;;;;;;;;;;;;;5121513;27;1155;-76
2022/04/11 12:30:17;;;;;;;;;;;;;;;;;;5104483;28;1217;-75
2022/04/11 12:32:42;;;;;;;;;;;;;;;;;;5120494;28;1043;-76
2022/04/11 12:35:14;;;;;;;;;;;;;;;;;;5115317;27;1155;-75
2022/04/11 12:37:49;;;;;;;;;;;;;;;;;;5128051;27;1170;-76
2022/04/11 12:40:16;;;;;;;;;;;;;;;;;;5128019;27;1142;-76
2022/04/11 12:42:41;;;;;;;;;;;;;;;;;;5129224;27;1984;-75
2022/04/11 12:45:13;;;;;;;;;;;;;;;;;;5111083;27;1262;-77
2022/04/11 12:47:56;;;;;;;;;;;;;;;;;;5114541;27;1042;-75
2022/04/11 12:50:22;;;;;;;;;;;;;;;;;;5110386;28;949;-75
2022/04/11 12:52:47;;;;;;;;;;;;;;;;;;5108084;28;818;-76
2022/04/11 12:55:14;;;;;;;;;;;;;;;;;;5088931;28;1072;-75
2022/04/11 12:57:40;;;;;;;;;;;;;;;;;;5089953;28;986;-76
2022/04/11 13:00:16;;;;;;;;;;;;;;;;;;5109034;28;1300;-75
2022/04/11 13:02:42;;;;;;;;;;;;;;;;;;5119483;27;1889;-76
2022/04/11 13:05:12;;;;;;;;;;;;;;;;;;5127939;27;948;-77
2022/04/11 13:07:41;;;;;;;;;;;;;;;;;;5127539;27;821;-75
2022/04/11 13:10:17;;;;;;;;;;;;;;;;;;5110372;27;1551;-77
2022/04/11 13:12:43;;;;;;;;;;;;;;;;;;5128432;27;735;-77
2022/04/11 13:15:08;;;;;;;;;;;;;;;;;;5110490;27;1296;-76
2022/04/11 13:20:21;;;;;;;;;;;;;;;;;;5130859;27;996;-76
2022/04/11 13:22:46;;;;;;;;;;;;;;;;;;5108136;27;1955;-76
2022/04/11 13:25:13;;;;;;;;;;;;;;;;;;5103598;28;1250;-76
2022/04/11 13:27:41;;;;;;;;;;;;;;;;;;5107596;27;1392;-75
2022/04/11 13:30:07;;;;;;;;;;;;;;;;;;5107604;28;1238;-75
2022/04/11 13:32:32;;;;;;;;;;;;;;;;;;5106348;28;1273;-76
2022/04/11 13:34:57;;;;;;;;;;;;;;;;;;5107008;28;1187;-76
2022/04/11 13:37:22;;;;;;;;;;;;;;;;;;5106657;27;1107;-77
2022/04/11 13:39:47;;;;;;;;;;;;;;;;;;5094970;27;1197;-76
2022/04/11 13:42:13;;;;;;;;;;;;;;;;;;5120797;27;1967;-75
2022/04/11 13:44:39;;;;;;;;;;;;;;;;;;5121598;27;1191;-76
2022/04/11 13:47:05;;;;;;;;;;;;;;;;;;5087085;28;1256;-76
2022/04/11 13:49:31;;;;;;;;;;;;;;;;;;5106020;28;1210;-78
2022/04/11 13:51:56;;;;;;;;;;;;;;;;;;5103087;28;1383;-77
2022/04/11 13:54:21;;;;;;;;;;;;;;;;;;5111092;27;1178;-77
2022/04/11 13:56:46;;;;;;;;;;;;;;;;;;5110650;27;1152;-77
2022/04/11 13:59:12;;;;;;;;;;;;;;;;;;5105265;28;1155;-76
2022/04/11 14:01:39;;;;;;;;;;;;;;;;;;5123848;27;1417;-76
2022/04/11 14:04:06;;;;;;;;;;;;;;;;;;5109735;27;1901;-76
2022/04/11 14:06:33;;;;;;;;;;;;;;;;;;5112840;27;1186;-76
2022/04/11 14:08:58;;;;;;;;;;;;;;;;;;5107249;27;1102;-77
2022/04/11 14:11:23;;;;;;;;;;;;;;;;;;5125123;27;1184;-77
2022/04/11 14:13:49;;;;;;;;;;;;;;;;;;5126685;27;830;-76
2022/04/11 14:16:14;;;;;;;;;;;;;;;;;;5127274;27;1262;-77
2022/04/11 14:18:39;;;;;;;;;;;;;;;;;;5128582;27;862;-77
2022/04/11 14:21:04;;;;;;;;;;;;;;;;;;5105948;27;1245;-77
2022/04/11 14:23:41;;;;;;;;;;;;;;;;;;5126316;27;2040;-77
2022/04/11 14:26:06;;;;;;;;;;;;;;;;;;5108306;27;1112;-77
2022/04/11 14:28:32;;;;;;;;;;;;;;;;;;5130142;27;810;-77
2022/04/11 14:30:57;;;;;;;;;;;;;;;;;;5124738;27;1068;-77
2022/04/11 14:33:22;;;;;;;;;;;;;;;;;;5129074;27;1527;-77
2022/04/11 14:35:48;;;;;;;;;;;;;;;;;;5099667;27;1179;-77
2022/04/11 14:38:13;;;;;;;;;;;;;;;;;;5127021;27;1150;-77
2022/04/11 14:40:39;;;;;;;;;;;;;;;;;;5120849;27;1096;-77
2022/04/11 14:43:05;;;;;;;;;;;;;;;;;;5119381;27;1972;-77
2022/04/11 14:45:31;;;;;;;;;;;;;;;;;;5126048;27;1175;-75
2022/04/11 14:47:57;;;;;;;;;;;;;;;;;;5120322;27;1258;-75
2022/04/11 14:50:23;;;;;;;;;;;;;;;;;;5125400;27;1135;-76
2022/04/11 14:52:49;;;;;;;;;;;;;;;;;;5099757;27;1241;-77
2022/04/11 14:55:15;;;;;;;;;;;;;;;;;;5089187;28;1359;-77
2022/04/11 14:57:40;;;;;;;;;;;;;;;;;;5102783;28;1151;-77
2022/04/11 15:00:12;;;;;;;;;;;;;;;;;;5102966;27;1360;-77
2022/04/11 15:02:38;;;;;;;;;;;;;;;;;;5086820;28;1961;-77
2022/04/11 15:05:04;;;;;;;;;;;;;;;;;;5121506;27;1201;-76
2022/04/11 15:07:30;;;;;;;;;;;;;;;;;;5114914;27;1203;-77
2022/04/11 15:09:55;;;;;;;;;;;;;;;;;;5109340;27;1223;-75
2022/04/11 15:12:20;;;;;;;;;;;;;;;;;;5101985;28;1296;-76
2022/04/11 15:14:50;;;;;;;;;;;;;;;;;;5093377;27;1204;-76
2022/04/11 15:17:16;;;;;;;;;;;;;;;;;;5107557;27;1241;-77
2022/04/11 15:19:41;;;;;;;;;;;;;;;;;;5121987;27;1285;-77
2022/04/11 15:22:07;;;;;;;;;;;;;;;;;;5088324;28;1243;-77
2022/04/11 15:24:35;;;;;;;;;;;;;;;;;;5093250;27;1874;-76
2022/04/11 15:27:03;;;;;;;;;;;;;;;;;;5121761;27;1246;-77
2022/04/11 15:29:29;;;;;;;;;;;;;;;;;;5105728;28;1685;-77
2022/04/11 15:31:55;;;;;;;;;;;;;;;;;;5109441;27;1319;-78
2022/04/11 15:34:20;;;;;;;;;;;;;;;;;;5121676;27;1169;-77
2022/04/11 15:36:51;;;;;;;;;;;;;;;;;;5110969;27;1301;-77
2022/04/11 15:39:16;;;;;;;;;;;;;;;;;;5103479;28;1224;-78
2022/04/11 15:41:41;;;;;;;;;;;;;;;;;;5095882;28;1132;-77
2022/04/11 15:44:07;;;;;;;;;;;;;;;;;;5085167;28;1902;-76
2022/04/11 15:46:32;;;;;;;;;;;;;;;;;;5104142;28;1146;-77
2022/04/11 15:48:57;;;;;;;;;;;;;;;;;;5085204;28;1131;-76
2022/04/11 15:51:23;;;;;;;;;;;;;;;;;;5102333;28;1140;-77
2022/04/11 15:53:58;;;;;;;;;;;;;;;;;;5105640;27;1144;-77
2022/04/11 15:56:25;;;;;;;;;;;;;;;;;;5103534;27;1117;-77
2022/04/11 15:58:51;;;;;;;;;;;;;;;;;;5104391;28;1186;-77
2022/04/11 16:01:17;;;;;;;;;;;;;;;;;;5105709;27;1484;-85
2022/04/11 16:03:42;;;;;;;;;;;;;;;;;;5115475;27;1988;-71
2022/04/11 16:06:07;;;;;;;;;;;;;;;;;;5104342;27;1021;-72
2022/04/11 16:08:36;;;;;;;;;;;;;;;;;;5095461;28;1465;-72
2022/04/11 16:11:05;;;;;;;;;;;;;;;;;;5115907;27;1138;-71
2022/04/11 16:13:31;;;;;;;;;;;;;;;;;;5098820;28;1304;-71
2022/04/11 16:15:59;;;;;;;;;;;;;;;;;;5100741;28;1123;-71
2022/04/11 16:18:24;;;;;;;;;;;;;;;;;;5111973;28;1031;-71
2022/04/11 16:20:52;;;;;;;;;;;;;;;;;;5121793;28;1202;-71
2022/04/11 16:23:19;;;;;;;;;;;;;;;;;;5112659;28;1947;-70
2022/04/11 16:25:44;;;;;;;;;;;;;;;;;;5099028;28;1287;-70
2022/04/11 16:28:10;;;;;;;;;;;;;;;;;;5105075;28;1151;-70
2022/04/11 16:30:35;;;;;;;;;;;;;;;;;;5102264;28;1349;-70
2022/04/11 16:33:00;;;;;;;;;;;;;;;;;;5102214;28;1223;-69
2022/04/11 16:35:26;;;;;;;;;;;;;;;;;;5105291;28;1202;-70
2022/04/11 16:37:53;;;;;;;;;;;;;;;;;;5107086;28;1143;-70
2022/04/11 16:40:19;;;;;;;;;;;;;;;;;;5119773;28;1183;-70
2022/04/11 16:42:44;;;;;;;;;;;;;;;;;;5124023;28;1974;-70
2022/04/11 16:45:09;;;;;;;;;;;;;;;;;;5101285;28;1241;-69
2022/04/11 16:47:34;;;;;;;;;;;;;;;;;;5104487;28;1144;-70
2022/04/11 16:50:00;;;;;;;;;;;;;;;;;;5122114;28;1171;-70
2022/04/11 16:52:25;;;;;;;;;;;;;;;;;;5122265;27;1194;-71
2022/04/11 16:54:51;;;;;;;;;;;;;;;;;;5111053;28;1223;-70
2022/04/11 16:57:16;;;;;;;;;;;;;;;;;;5098427;28;1174;-71
2022/04/11 16:59:43;;;;;;;;;;;;;;;;;;5103653;28;1199;-71
2022/04/11 17:02:08;;;;;;;;;;;;;;;;;;5100821;28;1244;-70
2022/04/11 17:04:33;;;;;;;;;;;;;;;;;;5107211;28;1882;-70
2022/04/11 17:06:59;;;;;;;;;;;;;;;;;;5121185;27;1068;-74